Time;durP1;ratioP1;P1;durP2;ratioP2;P2;SDS_P1;SDS_P2;PMS_P1;PMS_P2;Temp;Humidity;BMP_temperature;BMP_pressure;BME280_temperature;BME280_humidity;BME280_pressure;Samples;Min_cycle;Max_cycle;Signal;HPM_P1;HPM_P2
2022/07/29 00:00:14;;;;;;;6.90;2.28;;;20.30;17.90;;;;;;5053730;28;20389;-77
2022/07/29 00:02:40;;;;;;;6.13;2.10;;;20.30;17.90;;;;;;5053924;28;20882;-76
2022/07/29 00:05:07;;;;;;;4.40;2.10;;;20.30;17.80;;;;;;5052283;28;20389;-77
2022/07/29 00:07:33;;;;;;;5.05;2.28;;;20.20;17.90;;;;;;5052993;28;20393;-77
2022/07/29 00:09:59;;;;;;;6.68;2.20;;;20.20;17.90;;;;;;5053900;28;20476;-76
2022/07/29 00:12:25;;;;;;;10.27;2.70;;;20.20;17.80;;;;;;5053190;28;20439;-76
2022/07/29 00:14:51;;;;;;;9.57;2.63;;;20.20;17.90;;;;;;5057717;28;20385;-76
2022/07/29 00:17:17;;;;;;;6.50;2.50;;;20.10;18.30;;;;;;5062267;28;20424;-76
2022/07/29 00:19:42;;;;;;;4.80;2.03;;;20.10;18.10;;;;;;5057633;28;20389;-77
2022/07/29 00:22:08;;;;;;;7.40;2.23;;;20.10;18.20;;;;;;5055301;28;20763;-77
2022/07/29 00:24:33;;;;;;;4.78;1.90;;;20.10;18.20;;;;;;5054244;28;20381;-77
2022/07/29 00:26:59;;;;;;;7.18;2.20;;;20.20;18.00;;;;;;5055282;28;20421;-77
2022/07/29 00:29:24;;;;;;;7.03;2.20;;;20.20;18.10;;;;;;5055570;28;20443;-78
2022/07/29 00:31:50;;;;;;;4.47;2.00;;;20.10;18.30;;;;;;5054327;28;20500;-75
2022/07/29 00:37:00;;;;;;;5.00;2.50;;;20.00;18.40;;;;;;5054266;28;20431;-78
2022/07/29 00:39:26;;;;;;;7.13;2.67;;;20.00;18.40;;;;;;5054753;28;20869;-77
2022/07/29 00:41:52;;;;;;;4.27;2.13;;;20.00;18.70;;;;;;5054869;28;20390;-77
2022/07/29 00:44:17;;;;;;;7.90;2.23;;;20.00;18.50;;;;;;5053851;28;20385;-77
2022/07/29 00:46:43;;;;;;;5.10;2.33;;;19.80;19.00;;;;;;5056294;28;20758;-77
2022/07/29 00:49:08;;;;;;;8.57;2.40;;;19.70;19.20;;;;;;5058737;28;20381;-77
2022/07/29 00:51:37;;;;;;;9.67;2.20;;;19.70;19.30;;;;;;5057990;28;20377;-75
2022/07/29 00:54:04;;;;;;;7.80;2.10;;;19.80;19.00;;;;;;5057745;28;20450;-76
2022/07/29 00:56:30;;;;;;;5.95;2.63;;;19.80;19.10;;;;;;5056815;28;20389;-76
2022/07/29 00:58:57;;;;;;;7.55;2.10;;;19.80;19.30;;;;;;5055771;28;20905;-79
2022/07/29 01:01:23;;;;;;;5.10;2.22;;;19.60;19.80;;;;;;5056905;28;20413;-77
2022/07/29 01:03:49;;;;;;;6.38;2.20;;;19.50;20.00;;;;;;5057986;28;20748;-77
2022/07/29 01:06:17;;;;;;;5.50;2.30;;;19.50;20.00;;;;;;5055189;28;20388;-76
2022/07/29 01:08:44;;;;;;;8.10;2.38;;;19.40;20.20;;;;;;5056748;28;20397;-77
2022/07/29 01:11:09;;;;;;;10.27;2.40;;;19.30;20.70;;;;;;5058620;28;20389;-77
2022/07/29 01:13:36;;;;;;;11.85;2.45;;;19.50;20.60;;;;;;5058799;28;20571;-77
2022/07/29 01:16:20;;;;;;;9.25;2.25;;;19.70;19.90;;;;;;5058326;28;20428;-76
2022/07/29 01:18:49;;;;;;;6.30;2.40;;;19.80;19.40;;;;;;5058899;28;20377;-77
2022/07/29 01:21:50;;;;;;;5.28;2.05;;;19.90;19.30;;;;;;5056606;28;20392;-77
2022/07/29 01:24:30;;;;;;;7.47;2.55;;;19.90;19.20;;;;;;5040135;28;20408;-75
2022/07/29 01:27:17;;;;;;;7.40;2.50;;;19.90;19.20;;;;;;5062252;28;20400;-77
2022/07/29 01:29:48;;;;;;;5.90;2.20;;;19.80;19.40;;;;;;5056786;28;20381;-76
2022/07/29 01:32:18;;;;;;;11.27;2.35;;;19.70;19.50;;;;;;5056183;28;20565;-76
2022/07/29 01:34:44;;;;;;;7.90;2.58;;;19.70;19.60;;;;;;5056809;28;20584;-77
2022/07/29 01:37:39;;;;;;;8.03;2.00;;;19.70;19.90;;;;;;5056670;28;20385;-77
2022/07/29 01:40:08;;;;;;;6.95;2.50;;;19.60;20.00;;;;;;5057020;28;20413;-77
2022/07/29 01:42:44;;;;;;;4.82;2.13;;;19.60;20.00;;;;;;5057542;28;20401;-77
2022/07/29 01:45:47;;;;;;;6.28;2.20;;;19.50;20.10;;;;;;5064038;28;20389;-76
2022/07/29 01:48:19;;;;;;;4.53;2.50;;;19.50;20.20;;;;;;5064970;28;20401;-76
2022/07/29 01:51:06;;;;;;;9.45;2.60;;;19.60;20.00;;;;;;5063960;28;20385;-76
2022/07/29 01:53:43;;;;;;;5.28;2.08;;;19.70;19.80;;;;;;5064253;28;20378;-76
2022/07/29 01:56:10;;;;;;;7.30;2.40;;;19.70;19.60;;;;;;5058952;28;20399;-77
2022/07/29 01:58:40;;;;;;;5.20;2.20;;;19.80;19.50;;;;;;5056092;28;20397;-76
2022/07/29 02:01:08;;;;;;;5.03;2.00;;;19.80;19.60;;;;;;5057510;28;20394;-75
2022/07/29 02:03:36;;;;;;;6.10;2.17;;;19.80;19.50;;;;;;5058730;28;20391;-75
2022/07/29 02:06:03;;;;;;;4.57;2.27;;;19.70;19.60;;;;;;5061754;28;20413;-75
2022/07/29 02:08:31;;;;;;;5.68;2.50;;;19.70;20.00;;;;;;5057182;28;20412;-75
2022/07/29 02:10:59;;;;;;;13.23;3.05;;;19.70;19.80;;;;;;5054375;28;20884;-75
2022/07/29 02:13:27;;;;;;;7.85;2.25;;;19.80;19.40;;;;;;5056424;28;20926;-76
2022/07/29 02:15:55;;;;;;;6.43;2.40;;;19.80;19.20;;;;;;5055861;28;20431;-76
2022/07/29 02:18:23;;;;;;;5.85;2.20;;;19.70;20.00;;;;;;5055467;28;20392;-75
2022/07/29 02:20:53;;;;;;;4.80;2.10;;;19.50;20.00;;;;;;5054814;28;20389;-76
2022/07/29 02:23:22;;;;;;;7.57;2.50;;;19.70;20.00;;;;;;5054238;28;20385;-76
2022/07/29 02:25:54;;;;;;;5.93;2.63;;;19.80;19.70;;;;;;5055247;28;20386;-75
2022/07/29 02:28:23;;;;;;;10.80;2.65;;;19.70;19.90;;;;;;5055011;28;20404;-76
2022/07/29 02:30:51;;;;;;;6.20;2.67;;;19.50;20.10;;;;;;5058489;28;20423;-76
2022/07/29 02:33:19;;;;;;;8.70;2.88;;;19.50;20.40;;;;;;5061096;28;20377;-76
2022/07/29 02:35:46;;;;;;;5.57;2.47;;;19.60;20.20;;;;;;5057488;28;20388;-76
2022/07/29 02:41:02;;;;;;;7.20;3.17;;;19.60;20.00;;;;;;5058737;28;20393;-76
2022/07/29 02:43:30;;;;;;;6.78;3.55;;;19.50;20.30;;;;;;5057360;28;20385;-76
2022/07/29 02:45:58;;;;;;;11.70;3.60;;;19.40;20.40;;;;;;5055033;28;20438;-76
2022/07/29 02:48:32;;;;;;;9.02;4.18;;;19.40;20.50;;;;;;5056332;28;20405;-76
2022/07/29 02:51:17;;;;;;;9.05;3.90;;;19.30;20.70;;;;;;5055842;28;20390;-75
2022/07/29 02:53:48;;;;;;;10.45;3.65;;;19.30;20.70;;;;;;5056039;28;20386;-75
2022/07/29 02:56:16;;;;;;;10.75;3.20;;;19.30;20.50;;;;;;5055712;28;20754;-78
2022/07/29 02:58:49;;;;;;;11.15;3.35;;;19.30;20.50;;;;;;5056693;28;20793;-76
2022/07/29 03:01:21;;;;;;;9.73;3.22;;;19.30;20.00;;;;;;5055136;28;20417;-74
2022/07/29 03:03:50;;;;;;;9.95;3.30;;;19.30;20.00;;;;;;5055530;28;20407;-76
2022/07/29 03:06:17;;;;;;;9.45;2.80;;;19.40;20.00;;;;;;5053740;28;20398;-76
2022/07/29 03:08:45;;;;;;;7.85;2.90;;;19.40;20.10;;;;;;5054389;28;20401;-75
2022/07/29 03:11:12;;;;;;;10.35;2.83;;;19.30;20.40;;;;;;5055154;28;20472;-76
2022/07/29 03:13:38;;;;;;;8.38;2.92;;;19.30;20.70;;;;;;5056308;28;20866;-76
2022/07/29 03:16:05;;;;;;;9.32;3.15;;;19.30;20.80;;;;;;5056643;28;20452;-76
2022/07/29 03:18:31;;;;;;;7.70;2.60;;;19.20;20.90;;;;;;5055492;28;20798;-75
2022/07/29 03:20:57;;;;;;;10.70;2.90;;;19.20;20.70;;;;;;5055250;28;20393;-75
2022/07/29 03:23:25;;;;;;;7.20;2.50;;;19.20;20.70;;;;;;5054729;28;20393;-76
2022/07/29 03:25:52;;;;;;;20.48;2.70;;;19.20;20.80;;;;;;5057857;28;20385;-79
2022/07/29 03:28:18;;;;;;;7.03;2.80;;;19.10;20.80;;;;;;5051139;28;20401;-76
2022/07/29 03:30:43;;;;;;;7.25;3.00;;;19.10;21.10;;;;;;5051168;28;20443;-76
2022/07/29 03:33:09;;;;;;;11.25;3.30;;;19.00;21.10;;;;;;5050828;28;20458;-76
2022/07/29 03:35:35;;;;;;;10.67;3.10;;;19.00;21.70;;;;;;5051091;28;20421;-76
2022/07/29 03:38:00;;;;;;;8.13;3.50;;;19.00;23.20;;;;;;5050859;28;20435;-76
2022/07/29 03:40:50;;;;;;;8.77;3.20;;;18.70;26.50;;;;;;5050807;28;20386;-75
2022/07/29 03:43:18;;;;;;;11.35;3.10;;;18.40;27.30;;;;;;5039831;28;20397;-76
2022/07/29 03:45:48;;;;;;;8.95;3.05;;;18.20;31.70;;;;;;5049441;28;20817;-76
2022/07/29 03:48:17;;;;;;;12.73;3.83;;;17.60;39.40;;;;;;5050829;28;20412;-77
2022/07/29 03:50:43;;;;;;;14.10;5.10;;;16.50;80.70;;;;;;5050630;28;20389;-75
2022/07/29 03:53:08;;;;;;;15.90;5.25;;;15.50;99.90;;;;;;5050507;28;20393;-75
2022/07/29 03:55:41;;;;;;;14.60;5.00;;;15.10;99.90;;;;;;5050515;28;20397;-75
2022/07/29 03:58:07;;;;;;;13.23;4.80;;;15.00;99.90;;;;;;5049674;28;20412;-75
2022/07/29 04:00:35;;;;;;;8.00;4.00;;;14.80;99.90;;;;;;5049329;28;20390;-75
2022/07/29 04:03:01;;;;;;;9.90;4.33;;;14.80;99.90;;;;;;5050429;28;20388;-74
2022/07/29 04:05:27;;;;;;;7.47;4.90;;;14.70;99.90;;;;;;5049092;28;20390;-75
2022/07/29 04:07:52;;;;;;;10.37;4.43;;;14.80;99.90;;;;;;5049540;28;20403;-74
2022/07/29 04:10:18;;;;;;;11.87;4.83;;;14.90;99.90;;;;;;5050882;28;20419;-75
2022/07/29 04:12:44;;;;;;;6.68;3.90;;;14.90;99.90;;;;;;5050612;28;20885;-75
2022/07/29 04:15:11;;;;;;;6.37;4.70;;;15.10;97.20;;;;;;5050737;28;20389;-74
2022/07/29 04:17:36;;;;;;;12.90;4.90;;;15.00;99.90;;;;;;5050563;28;20393;-75
2022/07/29 04:20:03;;;;;;;9.93;4.40;;;15.00;99.90;;;;;;5050781;28;20881;-77
2022/07/29 04:22:28;;;;;;;11.32;5.10;;;15.00;99.90;;;;;;5053938;28;20873;-75
2022/07/29 04:24:54;;;;;;;14.13;5.13;;;15.00;99.90;;;;;;5053388;28;20397;-74
2022/07/29 04:27:19;;;;;;;12.57;5.10;;;15.10;97.50;;;;;;5054325;28;20413;-75
2022/07/29 04:29:45;;;;;;;10.32;4.55;;;15.00;99.90;;;;;;5054604;28;20400;-75
2022/07/29 04:32:10;;;;;;;12.57;5.15;;;15.00;99.90;;;;;;5054403;28;20377;-76
2022/07/29 04:34:36;;;;;;;16.67;6.33;;;15.00;99.90;;;;;;5054311;28;20450;-75
2022/07/29 04:37:02;;;;;;;10.37;5.00;;;15.10;99.90;;;;;;5053045;28;20381;-75
2022/07/29 04:39:27;;;;;;;8.90;3.95;;;15.30;92.60;;;;;;5054249;28;20392;-76
2022/07/29 04:41:53;;;;;;;10.90;5.33;;;15.50;74.80;;;;;;5054132;28;20381;-76
2022/07/29 04:44:19;;;;;;;10.00;5.63;;;15.30;87.80;;;;;;5055704;28;20408;-76
2022/07/29 04:46:44;;;;;;;7.00;4.80;;;15.20;99.90;;;;;;5054795;28;20493;-75
2022/07/29 04:49:10;;;;;;;8.63;4.93;;;15.30;96.20;;;;;;5054331;28;20841;-76
2022/07/29 04:51:35;;;;;;;13.10;4.30;;;15.60;93.90;;;;;;5054543;28;20394;-76
2022/07/29 04:54:01;;;;;;;8.87;4.30;;;15.70;93.50;;;;;;5054125;28;20466;-77
2022/07/29 04:56:27;;;;;;;5.40;3.70;;;15.90;76.10;;;;;;5052798;28;20897;-76
2022/07/29 04:58:52;;;;;;;9.57;4.33;;;16.20;70.70;;;;;;5055069;28;20398;-76
2022/07/29 05:01:18;;;;;;;10.77;4.30;;;16.30;71.50;;;;;;5054300;28;20477;-76
2022/07/29 05:03:45;;;;;;;11.57;4.60;;;16.30;72.70;;;;;;5054149;28;20390;-76
2022/07/29 05:06:10;;;;;;;7.95;4.07;;;16.30;76.60;;;;;;5054337;28;20404;-75
2022/07/29 05:08:37;;;;;;;9.57;4.70;;;16.30;76.60;;;;;;5052926;28;20471;-76
2022/07/29 05:11:03;;;;;;;6.05;3.90;;;16.30;77.70;;;;;;5053939;28;20396;-76
2022/07/29 05:13:28;;;;;;;9.70;4.60;;;16.30;78.60;;;;;;5054084;28;20377;-76
2022/07/29 05:15:54;;;;;;;9.77;5.20;;;16.20;79.20;;;;;;5054023;28;20386;-76
2022/07/29 05:18:20;;;;;;;8.87;4.60;;;16.20;81.40;;;;;;5053885;28;20396;-76
2022/07/29 05:20:45;;;;;;;15.07;6.53;;;16.20;83.90;;;;;;5053988;28;20389;-76
2022/07/29 05:23:12;;;;;;;18.80;6.10;;;16.00;90.40;;;;;;5054122;28;20385;-75
2022/07/29 05:25:38;;;;;;;15.43;6.55;;;15.80;97.70;;;;;;5053822;28;20396;-75
2022/07/29 05:28:04;;;;;;;12.43;6.13;;;15.80;99.90;;;;;;5053884;28;20404;-75
2022/07/29 05:30:30;;;;;;;12.30;5.20;;;15.80;99.90;;;;;;5054039;28;20382;-76
2022/07/29 05:32:55;;;;;;;11.87;5.10;;;15.90;99.40;;;;;;5052811;28;20373;-76
2022/07/29 05:35:21;;;;;;;9.98;4.40;;;16.10;88.60;;;;;;5053767;28;20412;-76
2022/07/29 05:37:46;;;;;;;9.50;5.30;;;16.20;87.60;;;;;;5054215;28;20377;-76
2022/07/29 05:40:12;;;;;;;7.27;4.30;;;16.20;84.10;;;;;;5053695;28;20504;-77
2022/07/29 05:42:37;;;;;;;10.27;4.37;;;16.30;79.90;;;;;;5053614;28;20390;-76
2022/07/29 05:45:04;;;;;;;13.10;4.63;;;16.30;78.90;;;;;;5053993;28;20472;-76
2022/07/29 05:47:30;;;;;;;8.95;4.20;;;16.30;82.00;;;;;;5053248;28;20749;-76
2022/07/29 05:49:56;;;;;;;14.03;5.07;;;16.40;80.80;;;;;;5051742;28;20432;-76
2022/07/29 05:52:22;;;;;;;9.03;4.37;;;16.50;78.20;;;;;;5053689;28;20409;-75
2022/07/29 05:54:47;;;;;;;5.87;4.23;;;16.60;79.40;;;;;;5053922;28;20397;-76
2022/07/29 05:57:23;;;;;;;9.02;4.43;;;16.80;76.10;;;;;;5053454;28;20485;-77
2022/07/29 05:59:50;;;;;;;8.35;4.30;;;17.00;75.00;;;;;;5052894;28;20805;-77
2022/07/29 06:02:16;;;;;;;9.90;4.30;;;17.30;73.60;;;;;;5051500;28;20392;-77
2022/07/29 06:04:42;;;;;;;8.98;4.55;;;17.50;75.50;;;;;;5052648;28;20382;-76
2022/07/29 06:07:08;;;;;;;11.57;4.35;;;17.60;64.00;;;;;;5052535;28;20732;-77
2022/07/29 06:09:34;;;;;;;7.85;4.18;;;17.70;70.00;;;;;;5052652;28;20394;-76
2022/07/29 06:12:00;;;;;;;12.35;3.83;;;17.70;69.60;;;;;;5052449;28;20389;-78
2022/07/29 06:14:26;;;;;;;8.30;4.07;;;17.90;63.60;;;;;;5053090;28;20588;-75
2022/07/29 06:16:52;;;;;;;5.57;3.70;;;17.80;63.80;;;;;;5050790;28;20511;-77
2022/07/29 06:19:18;;;;;;;8.38;4.20;;;18.00;62.40;;;;;;5052413;28;20384;-76
2022/07/29 06:21:45;;;;;;;11.95;4.00;;;18.00;62.60;;;;;;5052080;28;20382;-76
2022/07/29 06:24:12;;;;;;;8.30;3.90;;;18.00;63.30;;;;;;5052154;28;20797;-76
2022/07/29 06:26:39;;;;;;;8.25;3.90;;;18.00;69.50;;;;;;5051956;28;20404;-76
2022/07/29 06:29:04;;;;;;;7.28;4.63;;;18.00;70.60;;;;;;5051978;28;20857;-76
2022/07/29 06:31:30;;;;;;;12.57;4.72;;;18.00;75.90;;;;;;5051586;28;20386;-76
2022/07/29 06:33:55;;;;;;;6.28;4.60;;;17.90;73.00;;;;;;5052319;28;20453;-76
2022/07/29 06:36:21;;;;;;;7.80;4.97;;;17.70;74.30;;;;;;5052088;28;20385;-76
2022/07/29 06:38:46;;;;;;;9.53;4.80;;;17.60;75.50;;;;;;5051935;28;20868;-76
2022/07/29 06:41:15;;;;;;;13.35;5.40;;;17.60;75.50;;;;;;5052178;28;20892;-76
2022/07/29 06:43:44;;;;;;;13.38;6.13;;;17.50;78.60;;;;;;5053298;28;20389;-76
2022/07/29 06:46:12;;;;;;;11.82;5.60;;;17.50;82.40;;;;;;5052477;28;20389;-76
2022/07/29 06:48:40;;;;;;;9.95;5.03;;;17.40;81.20;;;;;;5051578;28;20393;-76
2022/07/29 06:51:06;;;;;;;7.18;4.85;;;17.40;80.90;;;;;;5050487;28;20385;-75
2022/07/29 06:53:32;;;;;;;12.07;5.80;;;17.40;80.40;;;;;;5051859;28;20388;-76
2022/07/29 06:55:59;;;;;;;14.50;5.73;;;17.50;81.70;;;;;;5051344;28;20478;-76
2022/07/29 06:58:26;;;;;;;11.63;4.80;;;17.60;72.00;;;;;;5051422;28;20393;-76
2022/07/29 07:00:52;;;;;;;10.27;5.00;;;17.70;68.60;;;;;;5051470;28;20386;-76
2022/07/29 07:03:18;;;;;;;16.23;5.23;;;17.80;69.40;;;;;;5051654;28;20396;-76
2022/07/29 07:05:44;;;;;;;10.90;4.40;;;17.90;70.10;;;;;;5051421;28;20396;-75
2022/07/29 07:08:10;;;;;;;8.75;4.53;;;18.00;67.40;;;;;;5051167;28;20436;-76
2022/07/29 07:10:36;;;;;;;11.80;5.68;;;18.60;64.30;;;;;;5044593;28;20424;-75
2022/07/29 07:13:02;;;;;;;14.57;5.40;;;18.50;70.10;;;;;;5031217;28;20383;-76
2022/07/29 07:15:29;;;;;;;9.07;4.77;;;18.60;69.00;;;;;;5044270;28;20389;-77
2022/07/29 07:17:54;;;;;;;8.85;4.70;;;18.80;69.10;;;;;;5042436;28;20911;-77
2022/07/29 07:20:20;;;;;;;11.80;4.90;;;19.10;60.50;;;;;;5031990;28;20399;-75
2022/07/29 07:22:45;;;;;;;10.03;5.10;;;19.20;55.40;;;;;;5034066;28;20893;-75
2022/07/29 07:25:12;;;;;;;13.03;5.37;;;19.10;57.50;;;;;;5056137;28;20385;-76
2022/07/29 07:27:37;;;;;;;8.73;5.10;;;18.90;60.70;;;;;;5059658;28;20431;-75
2022/07/29 07:30:08;;;;;;;12.90;4.50;;;18.80;65.60;;;;;;5040558;28;20965;-76
2022/07/29 07:32:34;;;;;;;8.95;5.22;;;18.70;58.90;;;;;;5049434;28;20385;-75
2022/07/29 07:35:00;;;;;;;15.07;5.18;;;18.50;63.00;;;;;;5040845;28;20401;-75
2022/07/29 07:37:26;;;;;;;9.30;5.43;;;18.50;66.90;;;;;;5031404;28;20477;-75
2022/07/29 07:39:52;;;;;;;11.80;5.77;;;18.50;62.20;;;;;;5029136;28;20398;-75
2022/07/29 07:42:18;;;;;;;16.05;6.10;;;18.40;63.70;;;;;;5028991;28;20395;-76
2022/07/29 07:44:45;;;;;;;12.10;6.90;;;18.30;70.70;;;;;;5044932;28;20474;-74
2022/07/29 07:47:11;;;;;;;12.40;5.80;;;18.20;73.50;;;;;;5050915;28;20413;-76
2022/07/29 07:49:37;;;;;;;12.35;6.45;;;18.30;76.40;;;;;;5049048;28;20914;-75
2022/07/29 07:52:03;;;;;;;14.70;6.13;;;18.50;72.30;;;;;;5047690;28;20474;-76
2022/07/29 07:54:28;;;;;;;14.82;5.68;;;18.80;66.90;;;;;;5051157;22;20420;-73
2022/07/29 07:56:54;;;;;;;13.07;6.40;;;19.00;61.30;;;;;;5049048;28;20398;-75
2022/07/29 07:59:19;;;;;;;8.43;5.60;;;19.00;61.00;;;;;;5049757;28;20408;-76
2022/07/29 08:01:45;;;;;;;11.32;5.80;;;18.90;57.70;;;;;;5049805;28;20631;-75
2022/07/29 08:04:10;;;;;;;7.05;5.55;;;18.70;57.90;;;;;;5050076;28;20436;-75
2022/07/29 08:06:36;;;;;;;11.03;5.80;;;18.60;58.40;;;;;;5050186;28;20393;-75
2022/07/29 08:09:04;;;;;;;10.33;4.77;;;18.60;60.30;;;;;;5049914;28;20405;-75
2022/07/29 08:11:29;;;;;;;10.93;5.45;;;18.30;57.90;;;;;;5048388;28;20402;-75
2022/07/29 08:13:55;;;;;;;12.10;5.00;;;18.30;61.10;;;;;;5051034;28;20926;-75
2022/07/29 08:16:21;;;;;;;13.75;5.75;;;18.30;62.50;;;;;;5050187;28;20476;-74
2022/07/29 08:18:47;;;;;;;10.30;5.60;;;18.30;64.90;;;;;;5048904;28;20403;-74
2022/07/29 08:21:14;;;;;;;12.38;5.75;;;18.40;61.30;;;;;;5048886;28;20886;-74
2022/07/29 08:23:45;;;;;;;9.10;5.40;;;18.40;61.60;;;;;;5049498;28;20403;-74
2022/07/29 08:26:12;;;;;;;15.52;6.15;;;18.40;63.80;;;;;;5047121;28;20397;-74
2022/07/29 08:28:39;;;;;;;9.90;6.00;;;18.40;64.80;;;;;;5047690;28;20420;-75
2022/07/29 08:31:05;;;;;;;10.77;6.18;;;18.40;67.70;;;;;;5052762;28;20389;-73
2022/07/29 08:33:34;;;;;;;15.38;6.30;;;18.30;67.30;;;;;;5068363;28;20624;-72
2022/07/29 08:35:59;;;;;;;9.65;5.90;;;18.10;71.00;;;;;;5056941;28;20432;-72
2022/07/29 08:38:26;;;;;;;11.15;6.55;;;18.10;74.30;;;;;;5053812;28;20393;-71
2022/07/29 08:40:52;;;;;;;13.02;7.30;;;18.00;75.60;;;;;;5049603;28;20401;-75
2022/07/29 08:43:19;;;;;;;15.73;6.50;;;18.00;80.00;;;;;;5047553;28;20505;-75
2022/07/29 08:45:49;;;;;;;15.00;6.55;;;18.10;75.90;;;;;;5048925;28;20458;-73
2022/07/29 08:48:19;;;;;;;12.63;7.60;;;18.10;78.10;;;;;;5048983;28;20406;-75
2022/07/29 08:50:47;;;;;;;17.23;6.80;;;18.00;80.20;;;;;;5049195;28;20401;-74
2022/07/29 08:53:15;;;;;;;15.48;7.80;;;18.20;77.50;;;;;;5049624;28;20426;-75
2022/07/29 08:55:49;;;;;;;12.10;6.63;;;18.50;74.40;;;;;;5049466;28;20478;-74
2022/07/29 08:58:15;;;;;;;11.10;6.70;;;18.60;73.00;;;;;;5049172;28;20727;-75
2022/07/29 09:00:44;;;;;;;13.52;6.63;;;18.60;71.70;;;;;;5050026;28;20393;-74
2022/07/29 09:03:14;;;;;;;25.48;7.10;;;18.60;74.10;;;;;;5049870;28;20404;-74
2022/07/29 09:05:42;;;;;;;16.50;6.80;;;18.50;72.20;;;;;;5050945;28;20385;-74
2022/07/29 09:08:08;;;;;;;11.90;6.40;;;18.50;71.20;;;;;;5053564;28;20455;-74
2022/07/29 09:10:37;;;;;;;12.32;6.20;;;18.40;70.40;;;;;;5054066;28;20389;-74
2022/07/29 09:13:03;;;;;;;12.25;6.50;;;18.50;72.70;;;;;;5053052;28;20377;-73
2022/07/29 09:15:28;;;;;;;8.40;5.83;;;18.60;70.00;;;;;;5053027;28;20435;-73
2022/07/29 09:17:55;;;;;;;9.63;5.73;;;18.70;67.00;;;;;;5053108;28;20408;-73
2022/07/29 09:20:24;;;;;;;7.68;5.60;;;18.80;63.80;;;;;;5053574;28;20478;-72
2022/07/29 09:22:53;;;;;;;14.50;6.00;;;18.90;61.40;;;;;;5055987;28;20428;-75
2022/07/29 09:25:35;;;;;;;11.23;6.00;;;19.10;59.20;;;;;;5056440;28;20393;-74
2022/07/29 09:28:12;;;;;;;15.82;6.68;;;19.40;58.00;;;;;;5056842;28;20979;-75
2022/07/29 09:30:55;;;;;;;10.05;6.35;;;19.70;58.50;;;;;;5056623;28;20513;-74
2022/07/29 09:33:22;;;;;;;7.78;5.10;;;20.20;47.80;;;;;;5057666;28;20762;-74
2022/07/29 09:36:05;;;;;;;8.20;4.80;;;20.30;45.90;;;;;;5054765;28;20385;-75
2022/07/29 09:38:32;;;;;;;10.38;5.50;;;20.60;41.60;;;;;;5054438;28;20393;-74
2022/07/29 09:40:59;;;;;;;14.05;5.80;;;20.60;44.40;;;;;;5052622;28;20429;-73
2022/07/29 09:43:24;;;;;;;7.03;4.70;;;20.90;42.80;;;;;;5053222;28;20400;-74
2022/07/29 09:45:50;;;;;;;8.15;5.32;;;21.20;41.50;;;;;;5052950;28;20768;-75
2022/07/29 09:48:19;;;;;;;13.13;6.07;;;21.10;38.50;;;;;;5051562;28;20474;-74
2022/07/29 09:50:46;;;;;;;9.73;5.78;;;21.10;42.00;;;;;;5052580;28;20389;-75
2022/07/29 09:53:28;;;;;;;10.68;5.75;;;21.10;39.70;;;;;;5053084;28;20760;-74
2022/07/29 09:55:54;;;;;;;12.95;6.40;;;21.20;40.40;;;;;;5052133;28;20398;-73
2022/07/29 09:58:22;;;;;;;9.15;5.95;;;21.20;41.50;;;;;;5052624;28;20396;-74
2022/07/29 10:00:49;;;;;;;8.10;5.53;;;21.30;40.90;;;;;;5051835;28;20762;-75
2022/07/29 10:03:17;;;;;;;16.83;6.90;;;21.30;40.40;;;;;;5043500;28;20871;-75
2022/07/29 10:05:43;;;;;;;14.35;6.20;;;21.20;38.40;;;;;;5049253;28;20391;-75
2022/07/29 10:08:12;;;;;;;12.90;5.60;;;21.00;39.80;;;;;;5054832;28;20413;-74
2022/07/29 10:10:40;;;;;;;15.10;7.60;;;21.00;41.80;;;;;;5041234;28;20394;-74
2022/07/29 10:13:08;;;;;;;10.45;6.22;;;21.10;42.10;;;;;;5056730;28;20378;-75
2022/07/29 10:15:40;;;;;;;13.73;6.00;;;21.70;37.60;;;;;;5041445;28;20395;-74
2022/07/29 10:18:06;;;;;;;26.80;15.87;;;22.00;35.60;;;;;;5035305;28;20391;-75
2022/07/29 10:20:32;;;;;;;13.13;7.25;;;22.10;33.70;;;;;;5036227;28;20478;-75
2022/07/29 10:22:58;;;;;;;14.60;6.05;;;22.20;32.90;;;;;;5037896;28;20879;-72
2022/07/29 10:25:25;;;;;;;9.10;5.20;;;22.40;31.60;;;;;;5044085;28;20485;-75
2022/07/29 10:27:51;;;;;;;14.90;6.10;;;22.70;32.40;;;;;;5060240;28;20607;-74
2022/07/29 10:30:19;;;;;;;9.70;5.95;;;22.90;30.00;;;;;;5061039;28;20393;-75
2022/07/29 10:33:17;;;;;;;8.73;5.90;;;23.20;30.20;;;;;;5063567;28;20395;-74
2022/07/29 10:36:13;;;;;;;12.57;5.60;;;23.20;29.50;;;;;;5069461;28;20447;-75
2022/07/29 10:38:47;;;;;;;11.68;5.45;;;23.10;29.40;;;;;;5069947;28;20453;-75
2022/07/29 10:42:11;;;;;;;10.98;5.50;;;23.20;29.40;;;;;;5056338;28;20765;-73
2022/07/29 10:44:40;;;;;;;10.57;5.18;;;23.40;28.30;;;;;;4975210;28;20443;-73
2022/07/29 10:47:06;;;;;;;16.52;7.95;;;23.20;27.60;;;;;;4970094;28;20746;-74
2022/07/29 10:49:32;;;;;;;9.20;5.00;;;23.00;26.40;;;;;;5025411;28;20392;-74
2022/07/29 10:52:07;;;;;;;11.63;5.10;;;23.10;27.10;;;;;;5053448;28;20419;-74
2022/07/29 10:54:33;;;;;;;14.65;5.10;;;22.80;25.10;;;;;;5049952;28;20495;-76
2022/07/29 10:57:14;;;;;;;10.10;5.47;;;22.30;26.80;;;;;;5055071;28;20398;-76
2022/07/29 10:59:42;;;;;;;13.38;5.55;;;22.10;29.30;;;;;;5049889;28;20397;-77
2022/07/29 11:02:32;;;;;;;10.93;5.38;;;21.90;29.80;;;;;;5053753;28;20393;-77
2022/07/29 11:04:59;;;;;;;13.77;5.25;;;21.70;28.20;;;;;;5053612;28;20404;-78
2022/07/29 11:07:25;;;;;;;7.30;4.40;;;21.80;25.90;;;;;;5053939;28;20409;-77
2022/07/29 11:10:12;;;;;;;13.13;4.38;;;21.90;26.00;;;;;;5051421;28;20987;-75
2022/07/29 11:12:38;;;;;;;10.57;4.13;;;21.80;25.90;;;;;;5049724;28;20731;-75
2022/07/29 11:15:06;;;;;;;9.90;4.20;;;22.00;25.00;;;;;;5057610;28;20392;-74
2022/07/29 11:17:53;;;;;;;6.25;3.70;;;22.10;24.70;;;;;;5057492;28;20389;-75
2022/07/29 11:20:42;;;;;;;7.68;4.10;;;22.50;24.70;;;;;;5047279;28;20880;-75
2022/07/29 11:23:26;;;;;;;10.98;3.90;;;22.60;20.20;;;;;;5042359;28;20398;-75
2022/07/29 11:26:10;;;;;;;7.80;3.47;;;22.70;19.70;;;;;;5040258;28;20395;-75
2022/07/29 11:28:48;;;;;;;6.22;3.30;;;22.80;19.50;;;;;;5053678;28;20410;-76
2022/07/29 11:31:16;;;;;;;7.70;4.00;;;23.00;19.00;;;;;;5060107;28;20408;-72
2022/07/29 11:33:41;;;;;;;6.75;3.72;;;23.40;18.60;;;;;;5057137;28;20401;-73
2022/07/29 11:36:12;;;;;;;11.37;4.30;;;24.00;15.90;;;;;;5056027;28;20381;-75
2022/07/29 11:38:38;;;;;;;11.65;3.60;;;24.50;15.40;;;;;;5055230;28;20439;-76
2022/07/29 11:41:23;;;;;;;5.93;3.20;;;24.80;14.40;;;;;;5054000;28;20389;-76
2022/07/29 11:43:51;;;;;;;13.03;3.43;;;24.90;13.70;;;;;;5054900;28;20439;-75
2022/07/29 11:46:49;;;;;;;10.10;3.80;;;25.10;13.70;;;;;;5053463;28;20374;-74
2022/07/29 11:49:26;;;;;;;9.30;4.10;;;25.00;14.50;;;;;;5053112;28;20406;-77
2022/07/29 11:51:57;;;;;;;12.50;3.80;;;24.90;14.00;;;;;;5053111;28;20408;-74
2022/07/29 11:54:31;;;;;;;8.70;3.50;;;24.80;14.20;;;;;;5052314;28;20473;-74
2022/07/29 11:56:58;;;;;;;11.40;4.00;;;24.70;16.00;;;;;;5052832;28;20416;-72
2022/07/29 11:59:25;;;;;;;8.75;3.70;;;24.80;14.50;;;;;;5053215;28;20400;-75
2022/07/29 12:01:54;;;;;;;13.82;4.05;;;24.60;14.90;;;;;;5057335;28;20405;-74
2022/07/29 12:04:20;;;;;;;9.10;3.80;;;24.80;15.30;;;;;;5067622;28;20394;-75
2022/07/29 12:06:53;;;;;;;9.85;3.95;;;24.70;14.90;;;;;;5072001;28;20409;-74
2022/07/29 12:09:20;;;;;;;9.75;4.35;;;25.00;15.50;;;;;;5067127;28;20482;-73
2022/07/29 12:11:47;;;;;;;8.40;4.38;;;25.00;14.30;;;;;;5061380;28;20511;-75
2022/07/29 12:14:29;;;;;;;11.57;4.45;;;25.00;15.10;;;;;;5055639;28;20408;-74
2022/07/29 12:16:56;;;;;;;13.55;5.38;;;24.90;16.10;;;;;;5051595;28;20473;-75
2022/07/29 12:19:22;;;;;;;8.50;4.50;;;24.80;16.00;;;;;;5052235;28;20425;-75
2022/07/29 12:21:50;;;;;;;14.03;4.80;;;24.70;16.50;;;;;;5050189;28;20401;-73
2022/07/29 12:24:17;;;;;;;13.68;5.20;;;24.70;16.20;;;;;;5052556;28;20389;-74
2022/07/29 12:26:53;;;;;;;12.15;5.20;;;24.60;16.60;;;;;;5052168;28;20440;-74
2022/07/29 12:29:19;;;;;;;14.90;5.97;;;24.60;16.80;;;;;;5051417;28;20409;-75
2022/07/29 12:31:46;;;;;;;15.57;6.18;;;24.50;17.30;;;;;;5051433;28;20446;-74
2022/07/29 12:34:16;;;;;;;18.52;7.00;;;24.50;17.30;;;;;;5053079;28;20438;-73
2022/07/29 12:36:42;;;;;;;18.15;6.53;;;24.50;17.20;;;;;;5052988;28;20750;-74
2022/07/29 12:39:09;;;;;;;16.40;6.95;;;24.50;17.60;;;;;;5060583;28;20386;-74
2022/07/29 12:41:35;;;;;;;15.23;6.93;;;24.40;17.40;;;;;;5057554;28;20439;-76
2022/07/29 12:44:01;;;;;;;14.77;6.95;;;24.10;17.50;;;;;;5058916;28;20443;-75
2022/07/29 12:46:27;;;;;;;17.15;6.30;;;24.10;18.90;;;;;;5056969;28;20393;-73
2022/07/29 12:48:54;;;;;;;14.23;5.90;;;24.80;17.30;;;;;;5056744;28;20409;-75
2022/07/29 12:51:31;;;;;;;16.15;6.00;;;25.00;17.10;;;;;;5055624;28;20405;-75
2022/07/29 12:54:07;;;;;;;13.05;5.65;;;24.70;17.00;;;;;;5056015;28;20507;-75